createdAt,value
2023-01-17T00:01:08.804Z,56.01
2023-01-17T00:03:35.120Z,56.04
2023-01-17T00:06:01.628Z,55.98
2023-01-17T00:08:28.107Z,55.99
2023-01-17T00:10:54.585Z,56.11
2023-01-17T00:13:20.993Z,55.84
2023-01-17T00:15:47.515Z,55.95
2023-01-17T00:18:14.189Z,56.00
2023-01-17T00:20:41.297Z,55.87
2023-01-17T00:23:08.193Z,56.20
2023-01-17T00:25:35.052Z,55.98
2023-01-17T00:28:01.715Z,56.11
2023-01-17T00:30:28.911Z,56.18
2023-01-17T00:32:55.731Z,55.85
2023-01-17T00:35:22.100Z,56.00
2023-01-17T00:37:48.400Z,55.80
2023-01-17T00:40:15.701Z,56.16
2023-01-17T00:42:42.505Z,56.01
2023-01-17T00:45:09.422Z,55.98
2023-01-17T00:47:36.165Z,56.00
2023-01-17T00:50:02.510Z,56.00
2023-01-17T00:52:29.412Z,56.03
2023-01-17T00:54:56.057Z,56.10
2023-01-17T00:57:23.003Z,56.32
2023-01-17T00:59:50.307Z,56.09
2023-01-17T01:02:16.781Z,56.26
2023-01-17T01:04:43.347Z,56.18
2023-01-17T01:07:10.275Z,55.94
2023-01-17T01:09:36.684Z,56.05
2023-01-17T01:12:03.149Z,56.20
2023-01-17T01:14:29.484Z,56.21
2023-01-17T01:16:56.077Z,56.16
2023-01-17T01:19:22.540Z,55.96
2023-01-17T01:21:49.223Z,56.11
2023-01-17T01:24:16.096Z,56.22
2023-01-17T01:26:42.649Z,56.22
2023-01-17T01:29:09.505Z,56.16
2023-01-17T01:31:36.157Z,56.18
2023-01-17T01:34:02.645Z,56.16
2023-01-17T01:36:29.584Z,56.04
2023-01-17T01:38:56.432Z,56.00
2023-01-17T01:41:23.463Z,55.97
2023-01-17T01:43:49.921Z,56.29
2023-01-17T01:46:16.219Z,55.86
2023-01-17T01:48:42.856Z,56.19
2023-01-17T01:51:09.665Z,55.95
2023-01-17T01:53:36.302Z,56.09
2023-01-17T01:56:02.601Z,56.10
2023-01-17T01:58:29.452Z,56.18
2023-01-17T02:00:56.420Z,56.07
2023-01-17T02:03:23.959Z,56.25
2023-01-17T02:05:50.720Z,56.09
2023-01-17T02:08:17.023Z,56.11
2023-01-17T02:10:43.638Z,56.02
2023-01-17T02:13:10.223Z,56.08
2023-01-17T02:15:36.656Z,56.04
2023-01-17T02:18:03.312Z,56.08
2023-01-17T02:20:30.318Z,56.09
2023-01-17T02:22:56.732Z,56.29
2023-01-17T02:25:23.333Z,56.42
2023-01-17T02:27:49.825Z,56.28
2023-01-17T02:30:16.609Z,56.02
2023-01-17T02:32:43.225Z,56.33
2023-01-17T02:35:10.165Z,56.23
2023-01-17T02:37:37.100Z,56.12
2023-01-17T02:40:03.597Z,56.31
2023-01-17T02:42:30.337Z,56.04
2023-01-17T02:44:56.769Z,56.04
2023-01-17T02:47:23.189Z,56.22
2023-01-17T02:49:49.753Z,56.16
2023-01-17T02:52:16.548Z,56.37
2023-01-17T02:54:42.920Z,56.33
2023-01-17T02:57:09.354Z,56.21
2023-01-17T02:59:35.938Z,56.26
2023-01-17T03:02:02.464Z,56.37
2023-01-17T03:04:29.136Z,56.25
2023-01-17T03:06:55.911Z,56.26
2023-01-17T03:09:22.597Z,56.45
2023-01-17T03:11:48.880Z,56.48
2023-01-17T03:14:15.933Z,56.16
2023-01-17T03:16:42.259Z,56.44
2023-01-17T03:19:09.276Z,56.40
2023-01-17T03:21:35.906Z,56.12
2023-01-17T03:24:02.477Z,56.25
2023-01-17T03:26:28.753Z,56.25
2023-01-17T03:28:55.159Z,56.36
2023-01-17T03:31:21.465Z,56.19
2023-01-17T03:33:47.853Z,56.32
2023-01-17T03:36:14.385Z,56.44
2023-01-17T03:38:41.303Z,56.33
2023-01-17T03:41:08.427Z,56.54
2023-01-17T03:43:35.848Z,56.41
2023-01-17T03:46:02.373Z,56.50
2023-01-17T03:48:29.134Z,56.44
2023-01-17T03:50:55.576Z,56.56
2023-01-17T03:53:21.977Z,56.40
2023-01-17T03:55:48.577Z,56.31
2023-01-17T03:58:14.944Z,56.28
2023-01-17T04:00:41.241Z,56.34
2023-01-17T04:03:08.156Z,56.41
2023-01-17T04:05:34.551Z,56.42
2023-01-17T04:08:00.967Z,56.51
2023-01-17T04:10:27.456Z,56.27
2023-01-17T04:12:54.005Z,56.53
2023-01-17T04:15:20.553Z,56.61
2023-01-17T04:17:46.950Z,56.36
2023-01-17T04:20:13.236Z,56.36
2023-01-17T04:22:39.813Z,56.55
2023-01-17T04:25:06.171Z,56.40
2023-01-17T04:27:32.492Z,56.39
2023-01-17T04:29:58.835Z,56.47
2023-01-17T04:32:25.165Z,56.50
2023-01-17T04:34:51.544Z,56.20
2023-01-17T04:37:18.203Z,56.15
2023-01-17T04:39:44.628Z,56.35
2023-01-17T04:42:11.000Z,56.29
2023-01-17T04:44:37.316Z,56.33
2023-01-17T04:47:03.656Z,56.29
2023-01-17T04:49:30.081Z,56.27
2023-01-17T04:51:56.525Z,56.32
2023-01-17T04:54:22.899Z,56.30
2023-01-17T04:56:49.549Z,56.21
2023-01-17T04:59:15.922Z,56.18
2023-01-17T05:01:42.738Z,56.10
2023-01-17T05:04:09.280Z,56.09
2023-01-17T05:06:35.650Z,56.42
2023-01-17T05:09:01.979Z,56.64
2023-01-17T05:11:28.553Z,56.32
2023-01-17T05:13:55.088Z,56.14
2023-01-17T05:16:21.420Z,56.25
2023-01-17T05:18:47.860Z,56.15
2023-01-17T05:21:14.597Z,56.14
2023-01-17T05:23:41.216Z,56.05
2023-01-17T05:26:07.668Z,56.22
2023-01-17T05:28:34.080Z,56.53
2023-01-17T05:31:00.741Z,56.18
2023-01-17T05:33:27.112Z,56.17
2023-01-17T05:35:53.519Z,56.35
2023-01-17T05:38:19.844Z,56.50
2023-01-17T05:40:46.421Z,55.94
2023-01-17T05:43:12.795Z,56.49
2023-01-17T05:45:39.534Z,56.28
2023-01-17T05:48:06.088Z,56.45
2023-01-17T05:50:32.727Z,56.21
2023-01-17T05:52:59.512Z,56.33
2023-01-17T05:55:26.008Z,56.21
2023-01-17T05:57:52.900Z,56.07
2023-01-17T06:00:19.217Z,56.23
2023-01-17T06:02:45.832Z,56.45
2023-01-17T06:05:12.404Z,56.38
2023-01-17T06:07:38.826Z,56.57
2023-01-17T06:10:05.468Z,56.38
2023-01-17T06:12:32.103Z,56.30
2023-01-17T06:14:59.117Z,56.50
2023-01-17T06:17:25.501Z,56.59
2023-01-17T06:19:51.840Z,56.41
2023-01-17T06:22:18.692Z,56.26
2023-01-17T06:24:45.211Z,56.48
2023-01-17T06:27:11.971Z,56.59
2023-01-17T06:29:38.796Z,56.58
2023-01-17T06:32:05.385Z,56.48
2023-01-17T06:34:31.786Z,56.60
2023-01-17T06:36:58.526Z,56.59
2023-01-17T06:39:25.402Z,56.56
2023-01-17T06:41:51.964Z,56.44
2023-01-17T06:44:18.745Z,56.32
2023-01-17T06:46:45.198Z,56.63
2023-01-17T06:49:11.712Z,56.49
2023-01-17T06:51:38.404Z,56.44
2023-01-17T06:54:04.916Z,56.61
2023-01-17T06:56:31.277Z,56.47
2023-01-17T06:58:57.588Z,56.51
2023-01-17T07:01:23.943Z,56.63
2023-01-17T07:06:22.452Z,56.47
2023-01-17T07:08:49.465Z,56.40
2023-01-17T07:11:16.661Z,56.60
2023-01-17T07:13:42.992Z,56.83
2023-01-17T07:16:09.930Z,56.75
2023-01-17T07:18:36.722Z,56.33
2023-01-17T07:21:03.106Z,56.68
2023-01-17T07:23:29.873Z,56.46
2023-01-17T07:25:56.662Z,56.55
2023-01-17T07:28:23.550Z,56.81
2023-01-17T07:30:49.902Z,56.75
2023-01-17T07:33:16.663Z,56.72
2023-01-17T07:35:43.037Z,56.69
2023-01-17T07:38:09.867Z,56.48
2023-01-17T07:40:41.725Z,56.85
2023-01-17T07:43:08.506Z,56.76
2023-01-17T07:45:34.877Z,56.49
2023-01-17T07:48:01.296Z,56.60
2023-01-17T07:50:27.908Z,56.83
2023-01-17T07:52:54.232Z,56.65
2023-01-17T07:55:20.576Z,56.88
2023-01-17T07:57:46.892Z,56.80
2023-01-17T08:00:13.883Z,56.77
2023-01-17T08:02:40.732Z,56.89
2023-01-17T08:05:07.615Z,56.66
2023-01-17T08:07:34.184Z,56.92
2023-01-17T08:10:00.586Z,57.03
2023-01-17T08:12:27.127Z,56.71
2023-01-17T08:14:53.508Z,56.66
2023-01-17T08:17:19.995Z,56.67
2023-01-17T08:19:46.750Z,56.63
2023-01-17T08:22:13.589Z,56.92
2023-01-17T08:24:40.126Z,56.93
2023-01-17T08:27:06.469Z,56.88
2023-01-17T08:29:32.892Z,57.03
2023-01-17T08:31:59.327Z,56.96
2023-01-17T08:34:25.705Z,56.78
2023-01-17T08:36:52.434Z,56.71
2023-01-17T08:39:19.284Z,56.71
2023-01-17T08:41:46.059Z,56.48
2023-01-17T08:44:13.024Z,56.58
2023-01-17T08:46:39.400Z,56.92
2023-01-17T08:49:05.784Z,57.10
2023-01-17T08:51:32.175Z,56.75
2023-01-17T08:53:58.542Z,56.92
2023-01-17T08:56:25.792Z,56.65
2023-01-17T08:58:52.102Z,56.96
2023-01-17T09:01:18.579Z,56.97
2023-01-17T09:03:45.390Z,56.78
2023-01-17T09:06:12.198Z,56.87
2023-01-17T09:08:38.476Z,57.03
2023-01-17T09:11:05.134Z,56.77
2023-01-17T09:13:31.897Z,56.92
2023-01-17T09:15:58.482Z,57.00
2023-01-17T09:18:25.466Z,56.85
2023-01-17T09:20:52.369Z,56.77
2023-01-17T09:23:18.893Z,56.86
2023-01-17T09:25:45.397Z,57.00
2023-01-17T09:28:12.512Z,56.86
2023-01-17T09:30:39.220Z,57.03
2023-01-17T09:33:05.703Z,57.13
2023-01-17T09:35:32.084Z,57.11
2023-01-17T09:37:58.370Z,56.73
2023-01-17T09:40:24.779Z,56.93
2023-01-17T09:42:51.665Z,56.84
2023-01-17T09:45:18.100Z,57.09
2023-01-17T09:47:45.024Z,56.85
2023-01-17T09:50:11.546Z,56.90
2023-01-17T09:52:37.933Z,56.84
2023-01-17T09:55:05.658Z,57.03
2023-01-17T09:57:33.744Z,56.92
2023-01-17T10:00:03.508Z,57.05
2023-01-17T10:02:30.761Z,56.84
2023-01-17T10:04:57.274Z,56.86
2023-01-17T10:07:23.730Z,56.98
2023-01-17T10:09:50.090Z,56.85
2023-01-17T10:12:16.738Z,56.78
2023-01-17T10:14:44.271Z,57.06
2023-01-17T10:17:11.026Z,57.12
2023-01-17T10:19:37.539Z,57.59
2023-01-17T10:22:04.859Z,57.34
2023-01-17T10:24:31.474Z,57.50
2023-01-17T10:26:58.023Z,57.60
2023-01-17T10:29:24.420Z,57.60
2023-01-17T10:31:50.814Z,57.61
2023-01-17T10:34:17.183Z,57.63
2023-01-17T10:36:44.288Z,57.73
2023-01-17T10:39:10.709Z,57.81
2023-01-17T10:41:37.811Z,57.73
2023-01-17T10:55:30.202Z,57.91
2023-01-17T10:57:56.991Z,57.85
2023-01-17T11:00:23.698Z,57.74
2023-01-17T11:02:50.565Z,57.79
2023-01-17T11:05:16.935Z,57.74
2023-01-17T11:07:43.653Z,57.99
2023-01-17T11:10:09.939Z,57.68
2023-01-17T11:12:36.362Z,57.92
2023-01-17T11:15:03.094Z,58.11
2023-01-17T11:17:30.011Z,57.83
2023-01-17T11:19:56.716Z,57.93
2023-01-17T11:22:23.299Z,58.19
2023-01-17T11:24:50.359Z,58.05
2023-01-17T11:27:17.258Z,58.00
2023-01-17T11:29:44.186Z,58.10
2023-01-17T11:32:11.124Z,58.31
2023-01-17T11:34:37.419Z,58.14
2023-01-17T11:37:03.829Z,58.14
2023-01-17T11:39:30.357Z,57.86
2023-01-17T11:41:56.987Z,57.89
2023-01-17T11:44:23.403Z,58.23
2023-01-17T11:46:49.731Z,57.83
2023-01-17T11:49:16.742Z,57.97
2023-01-17T11:51:43.579Z,57.96
2023-01-17T11:54:09.925Z,57.75
2023-01-17T11:56:36.265Z,58.11
2023-01-17T11:59:03.239Z,58.07
2023-01-17T12:01:29.597Z,58.13
2023-01-17T12:03:56.045Z,58.01
2023-01-17T12:06:22.464Z,58.25
2023-01-17T12:08:49.368Z,57.97
2023-01-17T12:11:15.757Z,58.20
2023-01-17T12:13:42.330Z,58.04
2023-01-17T12:16:09.412Z,57.74
2023-01-17T12:18:35.830Z,57.88
2023-01-17T12:21:02.219Z,57.97
2023-01-17T12:23:28.573Z,58.09
2023-01-17T12:25:55.157Z,57.99
2023-01-17T12:28:21.995Z,58.01
2023-01-17T12:30:48.329Z,58.13
2023-01-17T12:33:14.862Z,58.05
2023-01-17T12:35:41.172Z,57.64
2023-01-17T12:38:07.817Z,57.69
2023-01-17T12:40:34.124Z,57.81
2023-01-17T12:43:00.960Z,57.59
2023-01-17T12:45:27.305Z,57.64
2023-01-17T12:47:54.023Z,57.75
2023-01-17T12:50:20.345Z,57.56
2023-01-17T12:52:46.631Z,57.23
2023-01-17T12:55:13.325Z,57.38
2023-01-17T12:57:39.755Z,57.42
2023-01-17T13:00:06.136Z,57.63
2023-01-17T13:02:32.549Z,57.51
2023-01-17T13:04:59.388Z,57.36
2023-01-17T13:07:25.748Z,57.24
2023-01-17T13:09:52.292Z,57.00
2023-01-17T13:12:18.963Z,57.42
2023-01-17T13:14:45.737Z,57.45
2023-01-17T13:17:12.190Z,57.29
2023-01-17T13:19:38.691Z,57.19
2023-01-17T13:22:05.040Z,57.38
2023-01-17T13:24:31.424Z,57.26
2023-01-17T13:26:57.789Z,57.30
2023-01-17T13:29:24.531Z,57.24
2023-01-17T13:31:51.101Z,57.54
2023-01-17T13:34:17.415Z,57.52
2023-01-17T13:36:43.873Z,57.46
2023-01-17T13:39:10.280Z,57.31
2023-01-17T13:41:36.584Z,57.29
2023-01-17T13:44:02.970Z,57.60
2023-01-17T13:46:29.414Z,57.61
2023-01-17T13:48:55.829Z,57.41
2023-01-17T13:51:22.185Z,57.36
2023-01-17T13:53:49.289Z,57.53
2023-01-17T13:56:16.117Z,57.14
2023-01-17T13:58:42.818Z,57.14
2023-01-17T14:01:09.331Z,57.21
2023-01-17T14:03:36.192Z,57.18
2023-01-17T14:06:02.631Z,57.05
2023-01-17T14:08:28.945Z,57.27
2023-01-17T14:10:55.735Z,56.93
2023-01-17T14:13:22.452Z,56.71
2023-01-17T14:15:49.099Z,56.84
2023-01-17T14:18:15.617Z,56.89
2023-01-17T14:20:42.051Z,57.11
2023-01-17T14:23:08.509Z,57.35
2023-01-17T14:25:35.506Z,56.81
2023-01-17T14:28:02.198Z,57.03
2023-01-17T14:30:28.919Z,56.78
2023-01-17T14:32:55.805Z,56.68
2023-01-17T14:35:22.317Z,56.55
2023-01-17T14:37:49.222Z,56.92
2023-01-17T14:40:16.402Z,56.77
2023-01-17T14:42:43.789Z,56.57
2023-01-17T14:45:10.501Z,56.68
2023-01-17T14:47:38.375Z,56.58
2023-01-17T14:50:05.609Z,56.90
2023-01-17T14:52:32.380Z,56.61
2023-01-17T14:54:59.205Z,56.62
2023-01-17T14:57:26.538Z,56.58
2023-01-17T14:59:53.667Z,56.77
2023-01-17T15:02:21.084Z,56.72
2023-01-17T15:04:48.376Z,56.28
2023-01-17T15:07:15.428Z,56.76
2023-01-17T15:09:42.049Z,56.28
2023-01-17T15:12:09.383Z,56.68
2023-01-17T15:14:36.419Z,56.21
2023-01-17T15:17:03.582Z,56.35
2023-01-17T15:19:31.118Z,56.18
2023-01-17T15:21:58.359Z,56.20
2023-01-17T15:24:25.333Z,56.22
2023-01-17T15:26:52.350Z,56.31
2023-01-17T15:29:20.144Z,56.59
2023-01-17T15:31:47.187Z,56.19
2023-01-17T15:34:14.256Z,56.29
2023-01-17T15:36:43.797Z,56.58
2023-01-17T15:39:10.737Z,56.33
2023-01-17T15:41:38.417Z,56.51
2023-01-17T15:44:05.828Z,56.31
2023-01-17T15:46:32.735Z,56.29
2023-01-17T15:49:00.051Z,56.10
2023-01-17T15:51:27.299Z,56.11
2023-01-17T15:53:54.149Z,56.26
2023-01-17T15:56:20.999Z,56.44
2023-01-17T15:58:48.028Z,56.46
2023-01-17T16:01:15.471Z,56.10
2023-01-17T16:03:43.039Z,56.25
2023-01-17T16:06:10.290Z,55.94
2023-01-17T16:08:38.893Z,56.11
2023-01-17T16:11:06.260Z,56.11
2023-01-17T16:13:33.719Z,56.10
2023-01-17T16:16:09.664Z,56.21
2023-01-17T16:18:37.458Z,56.08
2023-01-17T16:21:04.489Z,55.87
2023-01-17T16:23:32.122Z,56.06
2023-01-17T16:25:59.043Z,56.02
2023-01-17T16:28:25.995Z,56.07
2023-01-17T16:30:53.399Z,55.67
2023-01-17T16:33:21.111Z,55.95
2023-01-17T16:35:48.020Z,55.61
2023-01-17T16:38:15.744Z,55.87
2023-01-17T16:40:44.011Z,55.93
2023-01-17T16:43:11.182Z,55.86
2023-01-17T16:45:38.534Z,55.44
2023-01-17T16:48:06.818Z,55.58
2023-01-17T16:50:34.519Z,55.80
2023-01-17T16:53:02.197Z,55.47
2023-01-17T16:55:34.976Z,55.73
2023-01-17T16:58:05.000Z,55.68
2023-01-17T17:00:36.895Z,55.63
2023-01-17T17:03:08.574Z,55.31
2023-01-17T17:05:48.155Z,55.47
2023-01-17T17:08:17.731Z,55.64
2023-01-17T17:13:30.317Z,55.49
2023-01-17T17:16:03.572Z,55.26
2023-01-17T17:21:18.929Z,55.54
2023-01-17T17:23:49.723Z,55.38
2023-01-17T17:26:20.801Z,55.13
2023-01-17T17:28:54.787Z,55.25
2023-01-17T17:31:28.538Z,54.90
2023-01-17T17:34:00.395Z,54.93
2023-01-17T17:36:46.211Z,54.98
2023-01-17T17:39:13.791Z,54.93
2023-01-17T17:41:40.418Z,54.96
2023-01-17T17:44:10.651Z,55.03
2023-01-17T17:46:38.573Z,55.24
2023-01-17T17:49:05.769Z,55.27
2023-01-17T17:54:19.145Z,54.98
2023-01-17T17:56:58.235Z,55.46
2023-01-17T18:02:00.549Z,55.41
2023-01-17T18:04:27.069Z,55.38
2023-01-17T18:09:27.562Z,55.45
2023-01-17T18:11:53.857Z,55.11
2023-01-17T18:14:20.700Z,54.83
2023-01-17T18:16:47.699Z,54.75
2023-01-17T18:19:14.013Z,54.84
2023-01-17T18:21:40.410Z,54.76
2023-01-17T18:24:07.606Z,54.71
2023-01-17T18:26:33.968Z,54.62
2023-01-17T18:29:00.752Z,54.33
2023-01-17T18:31:27.818Z,54.34
2023-01-17T18:33:54.475Z,54.25
2023-01-17T18:36:21.009Z,54.25
2023-01-17T18:38:47.513Z,54.03
2023-01-17T18:41:13.953Z,54.10
2023-01-17T18:43:40.804Z,53.72
2023-01-17T18:46:07.117Z,53.82
2023-01-17T18:48:33.956Z,53.71
2023-01-17T18:51:00.926Z,53.96
2023-01-17T18:53:27.777Z,53.55
2023-01-17T18:55:56.930Z,53.50
2023-01-17T18:58:23.457Z,53.76
2023-01-17T19:00:49.852Z,53.46
2023-01-17T19:03:16.878Z,53.49
2023-01-17T19:05:43.498Z,53.19
2023-01-17T19:08:09.852Z,53.57
2023-01-17T19:10:36.247Z,53.33
2023-01-17T19:13:02.891Z,53.15
2023-01-17T19:15:29.490Z,53.03
2023-01-17T19:17:56.573Z,53.41
2023-01-17T19:20:23.393Z,52.78
2023-01-17T19:22:49.849Z,53.09
2023-01-17T19:25:16.518Z,53.04
2023-01-17T19:27:43.282Z,53.08
2023-01-17T19:30:09.984Z,53.15
2023-01-17T19:32:36.413Z,52.84
2023-01-17T19:35:02.773Z,52.87
2023-01-17T19:37:29.181Z,52.66
2023-01-17T19:39:55.551Z,52.39
2023-01-17T19:42:22.468Z,52.25
2023-01-17T19:44:49.439Z,52.53
2023-01-17T19:47:15.828Z,52.13
2023-01-17T19:49:42.341Z,52.26
2023-01-17T19:52:09.007Z,52.14
2023-01-17T19:54:35.588Z,51.82
2023-01-17T19:57:02.046Z,52.16
2023-01-17T19:59:28.335Z,52.04
2023-01-17T20:01:54.756Z,52.05
2023-01-17T20:04:21.109Z,51.74
2023-01-17T20:06:47.621Z,52.10
2023-01-17T20:09:13.964Z,52.22
2023-01-17T20:14:13.302Z,52.24
2023-01-17T20:16:40.353Z,51.95
2023-01-17T20:19:07.818Z,52.10
2023-01-17T20:21:35.177Z,52.06
2023-01-17T20:24:02.168Z,52.31
2023-01-17T20:26:29.294Z,52.19
2023-01-17T20:28:56.356Z,52.42
2023-01-17T20:31:26.665Z,52.28
2023-01-17T20:33:53.884Z,51.97
2023-01-17T20:36:25.967Z,51.82
2023-01-17T20:38:52.411Z,52.00
2023-01-17T20:41:18.995Z,52.40
2023-01-17T20:43:45.592Z,52.21
2023-01-17T20:46:12.217Z,52.32
2023-01-17T20:48:39.613Z,52.30
2023-01-17T20:51:06.144Z,52.47
2023-01-17T20:53:33.279Z,52.66
2023-01-17T20:56:00.299Z,52.97
2023-01-17T20:58:27.371Z,52.79
2023-01-17T21:00:54.371Z,53.09
2023-01-17T21:03:20.928Z,53.11
2023-01-17T21:05:47.412Z,52.97
2023-01-17T21:08:14.184Z,53.00
2023-01-17T21:13:25.647Z,53.21
2023-01-17T21:15:52.580Z,53.56
2023-01-17T21:18:19.574Z,53.54
2023-01-17T21:20:46.198Z,53.38
2023-01-17T21:23:13.604Z,53.66
2023-01-17T21:25:41.769Z,53.72
2023-01-17T21:28:08.422Z,53.53
2023-01-17T21:30:35.226Z,53.82
2023-01-17T21:33:05.624Z,53.93
2023-01-17T21:35:35.504Z,54.16
2023-01-17T21:38:02.767Z,53.72
2023-01-17T21:40:29.632Z,53.80
2023-01-17T21:42:56.510Z,53.85
2023-01-17T21:45:23.114Z,53.72
2023-01-17T21:47:49.748Z,54.05
2023-01-17T21:50:32.093Z,54.14
2023-01-17T21:52:59.486Z,54.18
2023-01-17T21:55:26.282Z,53.90
2023-01-17T21:57:53.133Z,54.06
2023-01-17T22:00:21.034Z,54.25
2023-01-17T22:02:47.818Z,54.17
2023-01-17T22:05:14.578Z,54.18
2023-01-17T22:07:41.750Z,54.04
2023-01-17T22:10:08.913Z,53.94
2023-01-17T22:12:35.969Z,54.18
2023-01-17T22:15:02.716Z,53.42
2023-01-17T22:17:29.431Z,53.58
2023-01-17T22:19:56.188Z,53.43
2023-01-17T22:22:22.687Z,53.36
2023-01-17T22:24:49.454Z,53.46
2023-01-17T22:27:16.882Z,53.79
2023-01-17T22:29:43.861Z,53.70
2023-01-17T22:32:10.513Z,53.65
2023-01-17T22:34:37.045Z,53.57
2023-01-17T22:37:03.865Z,53.62
2023-01-17T22:39:31.701Z,53.61
2023-01-17T22:41:58.816Z,53.56
2023-01-17T22:44:25.764Z,53.42
2023-01-17T22:46:52.727Z,53.81
2023-01-17T22:49:19.894Z,53.18
2023-01-17T22:51:46.648Z,53.23
2023-01-17T22:54:13.308Z,53.26
2023-01-17T22:56:39.975Z,53.34
2023-01-17T22:59:06.783Z,53.30
2023-01-17T23:01:33.555Z,53.29
2023-01-17T23:04:00.516Z,53.10
2023-01-17T23:06:26.992Z,53.27
2023-01-17T23:08:54.282Z,52.97
2023-01-17T23:11:21.504Z,52.94
2023-01-17T23:13:47.999Z,53.36
2023-01-17T23:16:14.803Z,53.02
2023-01-17T23:18:41.542Z,52.88
2023-01-17T23:21:08.276Z,52.96
2023-01-17T23:23:35.054Z,52.98
2023-01-17T23:26:01.793Z,52.96
2023-01-17T23:28:28.718Z,53.09
2023-01-17T23:30:55.446Z,53.22
2023-01-17T23:33:21.918Z,53.01
2023-01-17T23:35:48.657Z,52.93
2023-01-17T23:38:15.249Z,53.31
2023-01-17T23:40:41.795Z,53.12
2023-01-17T23:43:08.540Z,52.92
2023-01-17T23:45:35.121Z,53.13
2023-01-17T23:48:01.787Z,53.25
2023-01-17T23:50:28.647Z,53.07
2023-01-17T23:52:55.487Z,53.16
2023-01-17T23:55:22.308Z,53.05
2023-01-17T23:57:49.222Z,52.95
